Time;durP1;ratioP1;P1;durP2;ratioP2;P2;SDS_P1;SDS_P2;PMS_P1;PMS_P2;Temp;Humidity;BMP_temperature;BMP_pressure;BME280_temperature;BME280_humidity;BME280_pressure;Samples;Min_cycle;Max_cycle;Signal;HPM_P1;HPM_P2
2022/08/21 00:01:46;;;;;;;8.10;6.30;;;;;;;21.14;78.68;99405.27;213251;1279;141162;-68
2022/08/21 00:06:51;;;;;;;8.10;7.20;;;;;;;21.16;78.89;99399.80;213543;1277;140458;-69
2022/08/21 00:11:54;;;;;;;9.50;6.90;;;;;;;21.16;79.01;99399.51;212882;1277;140532;-68
2022/08/21 00:16:58;;;;;;;11.10;6.90;;;;;;;21.15;79.00;99400.56;213591;1277;139929;-67
2022/08/21 00:22:02;;;;;;;7.10;6.50;;;;;;;21.07;78.90;99401.85;212970;1277;140386;-66
2022/08/21 00:27:07;;;;;;;9.30;5.10;;;;;;;20.98;78.88;99397.37;213707;1277;140859;-66
2022/08/21 00:32:11;;;;;;;11.70;5.10;;;;;;;20.90;78.91;99399.46;213982;1276;140999;-67
2022/08/21 00:37:15;;;;;;;9.40;6.00;;;;;;;20.86;78.90;99389.64;217116;1267;141284;-68
2022/08/21 00:42:20;;;;;;;6.10;5.50;;;;;;;20.78;78.68;99394.77;213459;1277;141323;-68
2022/08/21 00:47:24;;;;;;;8.20;5.40;;;;;;;20.67;78.78;99395.30;215157;1275;140581;-68
2022/08/21 00:52:32;;;;;;;5.80;4.70;;;;;;;20.57;78.85;99389.48;215727;1275;139569;-68
2022/08/21 00:57:43;;;;;;;7.10;4.40;;;;;;;20.55;78.82;99380.20;215792;1276;140277;-67
2022/08/21 01:02:48;;;;;;;8.60;4.00;;;;;;;20.54;78.81;99374.16;215132;1276;140547;-68
2022/08/21 01:07:56;;;;;;;7.40;4.10;;;;;;;20.45;78.52;99376.60;213871;1276;141539;-67
2022/08/21 01:13:08;;;;;;;3.60;3.30;;;;;;;20.34;78.59;99368.18;213182;1277;141979;-68
2022/08/21 01:18:14;;;;;;;7.80;4.50;;;;;;;20.28;78.75;99366.85;213497;1276;142085;-68
2022/08/21 01:23:19;;;;;;;4.40;4.00;;;;;;;20.22;78.81;99361.17;213123;1276;140141;-67
2022/08/21 01:28:24;;;;;;;4.60;4.00;;;;;;;20.16;78.98;99358.61;213265;1276;141688;-68
2022/08/21 01:33:29;;;;;;;7.60;4.50;;;;;;;20.09;78.94;99349.79;213240;1277;140800;-68
2022/08/21 01:38:33;;;;;;;16.50;5.30;;;;;;;20.03;79.00;99344.36;213017;1277;238446;-68
2022/08/21 01:43:38;;;;;;;5.80;5.20;;;;;;;19.97;79.07;99333.57;212967;1277;142234;-68
2022/08/21 01:48:43;;;;;;;6.60;4.10;;;;;;;19.95;79.36;99329.33;212027;1277;1754498;-68
2022/08/21 01:53:47;;;;;;;8.70;4.90;;;;;;;19.96;79.47;99330.89;212992;1279;141836;-68
2022/08/21 01:58:52;;;;;;;5.40;4.60;;;;;;;19.93;79.62;99326.95;213009;1277;140549;-68
2022/08/21 02:03:59;;;;;;;13.50;4.70;;;;;;;19.94;79.85;99321.84;213164;1277;140391;-68
2022/08/21 02:09:06;;;;;;;6.20;4.50;;;;;;;19.93;79.89;99321.58;212827;1279;140514;-68
2022/08/21 02:14:14;;;;;;;10.10;5.70;;;;;;;19.94;79.98;99327.24;212933;1276;140698;-68
2022/08/21 02:19:37;;;;;;;15.00;5.40;;;;;;;19.95;80.13;99317.36;213392;1277;141395;-69
2022/08/21 02:24:43;;;;;;;8.00;5.80;;;;;;;19.97;80.02;99312.57;214269;1276;140450;-70
2022/08/21 02:29:58;;;;;;;7.40;5.50;;;;;;;19.95;79.99;99308.39;215841;1277;140121;-69
2022/08/21 02:35:04;;;;;;;8.20;5.20;;;;;;;19.96;80.08;99302.05;215668;1277;140289;-69
2022/08/21 02:40:11;;;;;;;8.20;5.00;;;;;;;19.98;80.18;99304.49;213875;1277;141401;-67
2022/08/21 02:45:17;;;;;;;11.10;5.10;;;;;;;19.92;79.94;99301.33;215824;1277;141273;-68
2022/08/21 02:50:29;;;;;;;11.30;5.00;;;;;;;19.91;80.22;99298.54;215893;1277;142863;-68
2022/08/21 02:55:36;;;;;;;7.60;5.40;;;;;;;19.94;80.29;99295.55;215921;1277;141574;-69
2022/08/21 03:00:40;;;;;;;14.20;5.00;;;;;;;20.02;80.52;99296.77;215804;1277;141706;-70
2022/08/21 03:05:48;;;;;;;8.00;6.10;;;;;;;20.11;80.61;99296.59;214461;1277;142683;-67
2022/08/21 03:10:53;;;;;;;6.80;5.80;;;;;;;20.19;80.69;99293.78;213072;1279;209626;-68
2022/08/21 03:15:56;;;;;;;7.50;6.20;;;;;;;20.21;80.59;99293.25;213075;1278;140359;-68
2022/08/21 03:21:00;;;;;;;8.20;6.10;;;;;;;20.20;80.81;99304.58;213092;1277;140408;-67
2022/08/21 03:26:04;;;;;;;9.60;6.30;;;;;;;20.17;80.74;99308.90;212999;1277;140154;-67
2022/08/21 03:31:10;;;;;;;13.20;5.60;;;;;;;20.08;80.79;99311.45;213199;1277;140725;-68
2022/08/21 03:36:13;;;;;;;6.40;5.30;;;;;;;20.05;81.04;99309.36;213548;1277;141372;-68
2022/08/21 03:41:17;;;;;;;8.80;4.70;;;;;;;20.04;81.04;99305.75;213026;1279;152304;-68
2022/08/21 03:46:22;;;;;;;16.70;5.30;;;;;;;20.06;81.18;99295.81;213357;1277;140936;-69
2022/08/21 03:51:27;;;;;;;9.10;5.90;;;;;;;20.09;81.39;99297.77;213508;1277;141180;-69
2022/08/21 03:56:31;;;;;;;10.40;6.90;;;;;;;20.13;81.25;99297.42;213136;1277;142318;-68
2022/08/21 04:01:36;;;;;;;9.70;6.40;;;;;;;20.13;81.36;99305.70;213231;1277;143695;-69
2022/08/21 04:06:44;;;;;;;13.40;7.40;;;;;;;20.13;81.33;99316.91;213433;1277;141040;-70
2022/08/21 04:11:49;;;;;;;10.00;7.50;;;;;;;20.10;81.41;99321.53;213509;1277;142716;-68
2022/08/21 04:16:54;;;;;;;9.30;7.10;;;;;;;20.15;81.71;99321.89;213363;1277;141425;-68
2022/08/21 04:21:59;;;;;;;10.20;6.90;;;;;;;20.22;81.88;99326.09;213129;1277;141420;-68
2022/08/21 04:27:03;;;;;;;16.60;8.20;;;;;;;20.28;81.87;99324.79;213512;1277;141952;-69
2022/08/21 04:32:07;;;;;;;8.90;7.00;;;;;;;20.36;81.94;99337.19;213639;1277;210840;-69
2022/08/21 04:37:11;;;;;;;10.10;9.00;;;;;;;20.39;81.71;99344.71;213324;1277;142983;-69
2022/08/21 04:42:15;;;;;;;12.30;8.40;;;;;;;20.49;82.00;99345.32;213662;1277;142355;-68
2022/08/21 04:47:19;;;;;;;7.90;7.20;;;;;;;20.66;82.13;99347.61;215487;1277;141245;-70
2022/08/21 04:52:25;;;;;;;10.70;7.40;;;;;;;20.84;81.94;99349.48;215532;1277;140526;-69
2022/08/21 04:57:30;;;;;;;9.80;7.30;;;;;;;21.01;81.76;99358.74;215117;1278;141773;-68
2022/08/21 05:02:56;;;;;;;13.40;8.00;;;;;;;21.18;81.48;99353.45;213794;1277;142480;-68
2022/08/21 05:08:02;;;;;;;12.70;8.50;;;;;;;21.34;81.52;99350.85;213471;1278;140754;-68
2022/08/21 05:13:07;;;;;;;16.10;7.70;;;;;;;21.53;81.37;99353.39;212973;1277;141431;-69
2022/08/21 05:18:12;;;;;;;13.10;9.20;;;;;;;21.70;81.16;99354.40;212762;1279;142585;-68
2022/08/21 05:23:18;;;;;;;10.30;9.00;;;;;;;21.87;80.95;99358.44;212995;1277;140371;-68
2022/08/21 05:28:21;;;;;;;18.00;8.80;;;;;;;22.13;80.84;99357.77;213378;1277;210793;-68
2022/08/21 05:33:25;;;;;;;12.90;9.10;;;;;;;22.42;80.48;99354.32;213206;1277;141603;-67
2022/08/21 05:38:29;;;;;;;14.30;9.20;;;;;;;22.88;79.99;99359.04;213305;1277;141107;-68
2022/08/21 05:43:36;;;;;;;10.20;9.00;;;;;;;23.34;79.64;99359.20;213136;1277;141245;-70
2022/08/21 05:48:39;;;;;;;;;;;;;;;23.49;79.26;99358.84;213345;1277;140258;-69
2022/08/21 05:53:44;;;;;;;9.90;8.90;;;;;;;23.55;78.78;99363.81;213923;1275;126490;-67
2022/08/21 05:58:49;;;;;;;13.00;8.30;;;;;;;23.62;78.54;99358.39;213185;1277;142314;-68
2022/08/21 06:03:54;;;;;;;20.30;8.60;;;;;;;23.71;78.52;99352.23;213317;1277;140630;-68
2022/08/21 06:09:00;;;;;;;19.00;9.50;;;;;;;23.90;78.15;99356.34;213159;1277;141347;-68
2022/08/21 06:14:06;;;;;;;16.30;9.40;;;;;;;23.99;77.75;99363.09;213063;1277;140714;-66
2022/08/21 06:19:10;;;;;;;10.60;8.20;;;;;;;24.01;77.44;99363.55;213210;1277;140276;-68
2022/08/21 06:24:15;;;;;;;13.60;8.70;;;;;;;24.05;77.37;99368.48;213281;1277;140609;-69
2022/08/21 06:29:20;;;;;;;11.20;8.10;;;;;;;24.06;77.08;99361.86;213030;1279;140747;-68
2022/08/21 06:34:25;;;;;;;;;;;;;;;24.07;77.15;99353.13;214149;1277;141085;-68
2022/08/21 06:39:29;;;;;;;10.90;8.00;;;;;;;24.00;76.51;99354.88;216204;1277;128082;-67
2022/08/21 06:44:36;;;;;;;10.60;8.30;;;;;;;24.01;76.43;99355.54;215681;1277;141968;-67
2022/08/21 06:49:43;;;;;;;11.20;7.40;;;;;;;24.12;76.74;99358.60;215160;1279;142852;-68
2022/08/21 06:54:49;;;;;;;8.80;8.00;;;;;;;24.27;76.21;99362.88;215822;1277;142172;-67
2022/08/21 06:59:54;;;;;;;20.30;8.70;;;;;;;24.33;76.13;99358.59;215651;1277;140357;-67
2022/08/21 07:05:01;;;;;;;17.00;9.50;;;;;;;24.43;75.81;99361.90;214139;1277;140628;-67
2022/08/21 07:10:21;;;;;;;9.90;8.80;;;;;;;24.61;75.51;99364.95;213656;1277;141748;-68
2022/08/21 07:15:29;;;;;;;11.60;8.70;;;;;;;24.63;75.10;99367.14;213776;1277;139745;-67
2022/08/21 07:20:35;;;;;;;8.90;8.10;;;;;;;24.65;74.67;99365.33;213313;1277;140670;-67
2022/08/21 07:25:39;;;;;;;11.00;8.50;;;;;;;24.60;74.41;99362.94;213479;1277;142288;-69
2022/08/21 07:30:45;;;;;;;13.90;8.80;;;;;;;24.61;73.77;99362.75;212916;1279;140861;-70
2022/08/21 07:35:49;;;;;;;10.00;8.50;;;;;;;24.74;74.01;99355.73;213234;1277;140166;-69
2022/08/21 07:40:58;;;;;;;10.80;7.90;;;;;;;24.97;73.91;99358.56;213059;1277;140596;-67
2022/08/21 07:46:03;;;;;;;9.30;8.50;;;;;;;25.22;73.47;99353.74;213161;1277;141531;-67
2022/08/21 07:51:12;;;;;;;18.00;8.70;;;;;;;25.44;72.85;99347.13;212892;1279;141214;-70
2022/08/21 07:56:18;;;;;;;8.00;7.30;;;;;;;25.74;72.56;99348.75;213443;1277;140726;-70
2022/08/21 08:01:22;;;;;;;11.70;9.40;;;;;;;25.73;71.65;99348.17;213228;1277;140542;-71
2022/08/21 08:06:26;;;;;;;8.80;7.90;;;;;;;25.90;71.64;99349.95;213296;1277;140648;-67
2022/08/21 08:11:30;;;;;;;16.70;8.40;;;;;;;25.93;70.97;99350.65;213170;1277;142063;-67
2022/08/21 08:16:34;;;;;;;7.30;6.60;;;;;;;25.83;70.36;99355.52;213318;1275;139707;-67
2022/08/21 08:21:38;;;;;;;12.00;7.70;;;;;;;26.02;70.03;99358.71;213097;1277;140052;-67
2022/08/21 08:26:41;;;;;;;8.90;7.50;;;;;;;26.60;69.92;99354.31;214288;1277;141024;-68
2022/08/21 08:31:44;;;;;;;12.30;7.50;;;;;;;26.99;69.23;99356.91;215611;1277;140296;-68
2022/08/21 08:36:48;;;;;;;9.60;6.50;;;;;;;27.14;68.48;99360.52;215706;1277;139817;-69
2022/08/21 08:42:05;;;;;;;7.10;6.40;;;;;;;27.33;67.91;99364.16;215479;1277;141539;-68
2022/08/21 08:47:31;;;;;;;7.30;6.20;;;;;;;27.45;67.18;99357.88;215125;1278;139673;-67
2022/08/21 08:52:45;;;;;;;7.90;7.00;;;;;;;27.62;67.02;99355.45;212721;1277;140446;-68
2022/08/21 08:57:53;;;;;;;7.70;6.90;;;;;;;27.61;66.43;99353.78;213273;1277;139558;-66
2022/08/21 09:03:00;;;;;;;13.80;6.90;;;;;;;27.44;66.00;99354.96;213299;1279;140173;-69
2022/08/21 09:08:32;;;;;;;10.20;7.60;;;;;;;27.27;66.01;99354.00;212820;1277;141243;-66
2022/08/21 09:13:38;;;;;;;11.00;7.70;;;;;;;27.19;66.27;99352.18;212693;1278;140482;-67
2022/08/21 09:19:14;;;;;;;8.60;7.60;;;;;;;27.26;66.08;99350.84;212804;1277;140577;-67
2022/08/21 09:24:49;;;;;;;7.80;6.70;;;;;;;27.32;65.79;99349.88;212976;1277;140768;-66
2022/08/21 09:29:54;;;;;;;7.70;6.80;;;;;;;27.51;65.38;99348.78;213127;1277;139784;-65
2022/08/21 09:35:19;;;;;;;14.60;6.50;;;;;;;27.73;65.45;99356.01;213116;1277;140295;-66
2022/08/21 09:40:35;;;;;;;7.50;6.80;;;;;;;28.19;65.28;99354.48;213159;1277;143754;-67
2022/08/21 09:45:42;;;;;;;8.10;7.30;;;;;;;28.72;64.75;99352.20;213052;1277;139929;-67
2022/08/21 09:50:47;;;;;;;7.60;6.80;;;;;;;28.96;63.48;99350.21;213090;1277;140605;-67
2022/08/21 10:01:22;;;;;;;9.10;7.50;;;;;;;29.23;62.32;99340.05;213181;1278;140451;-67
2022/08/21 10:06:28;;;;;;;7.80;6.90;;;;;;;29.58;61.83;99330.25;213077;1277;141009;-66
2022/08/21 10:11:34;;;;;;;7.70;6.20;;;;;;;29.82;61.67;99331.35;212979;1277;140761;-65
2022/08/21 10:16:56;;;;;;;8.90;6.60;;;;;;;29.94;60.75;99330.98;213197;1277;141184;-66
2022/08/21 10:22:08;;;;;;;7.30;6.60;;;;;;;30.12;59.84;99326.65;212983;1277;141290;-65
2022/08/21 10:27:27;;;;;;;6.60;5.90;;;;;;;30.25;59.59;99320.19;213822;1277;140665;-67
2022/08/21 10:32:42;;;;;;;7.40;6.50;;;;;;;30.46;58.96;99321.35;215725;1277;139891;-68
2022/08/21 10:38:01;;;;;;;7.00;6.30;;;;;;;30.66;58.30;99322.04;215709;1277;140186;-68
2022/08/21 10:43:22;;;;;;;10.70;6.70;;;;;;;30.37;57.87;99318.20;215388;1278;139450;-69
2022/08/21 10:48:39;;;;;;;11.30;6.80;;;;;;;30.14;57.61;99316.15;215686;1277;140290;-66
2022/08/21 10:54:25;;;;;;;6.60;6.10;;;;;;;30.02;57.56;99318.73;213408;1277;139771;-67
2022/08/21 10:59:33;;;;;;;8.10;6.60;;;;;;;29.71;56.96;99322.66;213645;1277;140490;-66
2022/08/21 11:05:01;;;;;;;7.40;6.70;;;;;;;29.45;57.48;99319.30;213412;1277;140444;-69
2022/08/21 11:10:35;;;;;;;10.10;6.50;;;;;;;29.28;57.52;99316.92;213417;1277;139780;-69
2022/08/21 11:15:55;;;;;;;8.30;6.30;;;;;;;29.39;57.69;99312.55;213242;1277;139697;-65
2022/08/21 11:21:39;;;;;;;6.90;6.30;;;;;;;29.36;57.48;99306.15;213300;1277;139571;-67
2022/08/21 11:27:08;;;;;;;6.40;5.90;;;;;;;29.35;57.62;99307.61;212406;1279;139854;-67
2022/08/21 11:32:15;;;;;;;7.50;7.00;;;;;;;29.20;57.20;99314.68;212971;1277;142208;-67
2022/08/21 11:37:25;;;;;;;10.80;6.50;;;;;;;29.06;57.71;99309.05;213031;1277;141730;-67
2022/08/21 11:42:36;;;;;;;7.00;5.90;;;;;;;29.07;57.88;99306.96;213353;1277;167530;-66
2022/08/21 11:47:49;;;;;;;7.30;6.70;;;;;;;29.07;57.38;99308.67;213075;1277;140364;-67
2022/08/21 11:53:33;;;;;;;6.80;6.20;;;;;;;29.02;57.27;99314.27;213188;1277;140969;-66
2022/08/21 11:58:47;;;;;;;11.10;6.20;;;;;;;29.09;57.08;99311.52;213028;1277;141385;-67
2022/08/21 12:04:08;;;;;;;6.80;6.20;;;;;;;28.95;57.06;99319.23;213392;1277;141212;-68
2022/08/21 12:09:24;;;;;;;12.40;6.50;;;;;;;28.80;57.69;99320.38;213004;1277;141372;-67
2022/08/21 12:14:46;;;;;;;7.20;6.00;;;;;;;28.69;57.24;99315.02;213158;1277;140921;-67
2022/08/21 12:19:58;;;;;;;6.00;5.60;;;;;;;28.67;57.34;99315.30;213553;1277;140317;-67
2022/08/21 12:25:17;;;;;;;9.30;6.00;;;;;;;28.75;57.06;99315.96;214704;1279;140496;-68
2022/08/21 12:30:26;;;;;;;5.70;5.20;;;;;;;28.76;57.14;99315.05;215511;1277;140911;-70
2022/08/21 12:35:40;;;;;;;5.20;4.80;;;;;;;28.66;56.91;99313.40;215588;1277;141601;-70
2022/08/21 12:40:50;;;;;;;4.70;4.40;;;;;;;28.53;56.68;99316.75;215490;1277;139969;-68
2022/08/21 12:45:54;;;;;;;9.20;4.90;;;;;;;28.44;56.08;99315.75;215592;1278;151545;-67
2022/08/21 12:51:12;;;;;;;5.20;4.80;;;;;;;28.41;56.67;99311.63;213796;1278;139830;-66
2022/08/21 12:56:29;;;;;;;7.90;5.20;;;;;;;28.36;56.38;99312.77;213749;1278;140268;-66
2022/08/21 13:01:45;;;;;;;6.00;5.20;;;;;;;28.26;56.33;99315.09;212809;1279;141536;-67
2022/08/21 13:06:54;;;;;;;4.50;4.10;;;;;;;28.24;56.73;99314.98;213245;1278;140266;-70
2022/08/21 13:11:59;;;;;;;7.70;5.50;;;;;;;28.18;56.18;99312.73;213365;1277;139900;-66
2022/08/21 13:17:05;;;;;;;4.90;4.50;;;;;;;28.11;55.92;99307.27;213500;1278;140422;-65
2022/08/21 13:22:15;;;;;;;7.30;5.10;;;;;;;28.17;55.72;99305.02;213233;1278;142217;-66
2022/08/21 13:27:36;;;;;;;5.00;4.60;;;;;;;28.29;55.72;99306.23;213228;1278;140625;-67
2022/08/21 13:32:45;;;;;;;5.20;4.70;;;;;;;28.40;56.38;99306.11;213506;1278;140617;-65
2022/08/21 13:37:51;;;;;;;5.00;4.60;;;;;;;28.51;56.22;99309.84;212661;1279;140066;-65
2022/08/21 13:42:56;;;;;;;6.40;5.00;;;;;;;28.48;56.16;99311.50;212998;1278;139912;-67
2022/08/21 13:48:03;;;;;;;5.40;4.90;;;;;;;28.37;55.72;99312.34;212548;1277;1444351;-65
2022/08/21 13:53:21;;;;;;;6.60;4.50;;;;;;;28.27;55.91;99313.85;213259;1278;140093;-66
2022/08/21 13:58:44;;;;;;;12.10;10.50;;;;;;;28.18;56.15;99311.30;212974;1278;139966;-65
2022/08/21 14:03:50;;;;;;;17.20;14.50;;;;;;;28.16;58.08;99317.76;213037;1278;140779;-69
2022/08/21 14:09:01;;;;;;;18.60;16.80;;;;;;;28.18;58.81;99319.60;213125;1278;140129;-66
2022/08/21 14:14:22;;;;;;;18.10;16.20;;;;;;;28.08;59.14;99325.36;213406;1278;141285;-68
2022/08/21 14:19:39;;;;;;;22.00;16.80;;;;;;;27.82;59.64;99323.73;215572;1278;139978;-67
2022/08/21 14:24:42;;;;;;;17.40;15.80;;;;;;;27.61;60.34;99328.66;215764;1278;140393;-66
2022/08/21 14:29:46;;;;;;;17.50;15.60;;;;;;;27.40;60.92;99327.73;215668;1278;141349;-66
2022/08/21 14:34:49;;;;;;;23.00;15.70;;;;;;;27.30;61.71;99329.12;214548;1278;141230;-66
2022/08/21 14:39:53;;;;;;;18.40;16.00;;;;;;;27.26;61.90;99328.80;214438;1278;143181;-66
2022/08/21 14:45:01;;;;;;;19.10;15.80;;;;;;;27.27;61.88;99327.80;213776;1278;140390;-67
2022/08/21 14:50:06;;;;;;;18.10;15.60;;;;;;;27.26;62.26;99328.56;213262;1278;141457;-66
2022/08/21 14:55:13;;;;;;;18.10;14.50;;;;;;;27.15;62.37;99333.23;213419;1278;142087;-67
2022/08/21 15:00:22;;;;;;;19.40;14.50;;;;;;;26.92;62.75;99332.52;213108;1277;141691;-67
2022/08/21 15:05:38;;;;;;;15.60;13.70;;;;;;;26.81;63.13;99329.11;213351;1279;141492;-67
2022/08/21 15:10:43;;;;;;;13.30;12.00;;;;;;;26.69;63.28;99334.56;213261;1278;141604;-68
2022/08/21 15:16:10;;;;;;;14.80;12.70;;;;;;;26.43;63.59;99338.03;212994;1279;142234;-69
2022/08/21 15:21:15;;;;;;;17.30;13.60;;;;;;;26.29;64.12;99339.73;212617;1278;141205;-68
2022/08/21 15:26:20;;;;;;;17.20;15.00;;;;;;;26.13;64.21;99343.65;213029;1277;141003;-66
2022/08/21 15:31:24;;;;;;;;;;;;;;;25.93;64.28;99348.30;213006;1278;140478;-67
2022/08/21 15:36:27;;;;;;;20.80;17.70;;;;;;;25.70;64.66;99354.42;213626;1277;127142;-68
2022/08/21 15:41:31;;;;;;;21.80;18.90;;;;;;;25.39;64.89;99357.52;213308;1277;140526;-66
2022/08/21 15:46:37;;;;;;;22.60;17.40;;;;;;;25.11;65.13;99361.61;213238;1277;141189;-67
2022/08/21 15:51:40;;;;;;;20.30;17.40;;;;;;;24.80;65.44;99360.29;212920;1278;140983;-67
2022/08/21 15:56:50;;;;;;;26.30;17.70;;;;;;;24.53;65.86;99362.49;213168;1278;141551;-67
2022/08/21 16:01:53;;;;;;;21.00;16.30;;;;;;;24.36;66.62;99370.69;212899;1278;141909;-68
2022/08/21 16:06:57;;;;;;;19.80;16.60;;;;;;;24.22;66.78;99375.21;213165;1277;141441;-67
2022/08/21 16:12:17;;;;;;;23.00;15.30;;;;;;;24.03;67.06;99379.71;213955;1278;140973;-67
2022/08/21 16:17:28;;;;;;;15.30;13.20;;;;;;;23.84;67.55;99380.63;215675;1277;141662;-68
2022/08/21 16:22:33;;;;;;;22.80;13.50;;;;;;;23.71;67.94;99384.36;215420;1277;143127;-68
2022/08/21 16:27:51;;;;;;;17.10;15.10;;;;;;;23.66;68.38;99393.39;215435;1278;141666;-68
2022/08/21 16:33:08;;;;;;;20.20;15.10;;;;;;;23.61;68.55;99395.44;215395;1278;140388;-69
2022/08/21 16:38:12;;;;;;;18.20;14.60;;;;;;;23.50;68.66;99398.98;215570;1277;141925;-69
2022/08/21 16:43:16;;;;;;;17.10;13.70;;;;;;;23.41;69.23;99396.25;212946;1278;142946;-68
2022/08/21 16:48:22;;;;;;;15.90;14.40;;;;;;;23.36;69.28;99396.44;213593;1277;141113;-68
2022/08/21 16:53:31;;;;;;;;;;;;;;;23.30;69.65;99400.78;213370;1278;142136;-68
2022/08/21 16:58:48;;;;;;;16.70;15.00;;;;;;;23.23;70.15;99397.26;213679;1277;129325;-69
2022/08/21 17:03:56;;;;;;;23.70;16.50;;;;;;;23.18;70.17;99385.08;213111;1278;142945;-68
2022/08/21 17:09:11;;;;;;;17.90;15.30;;;;;;;23.11;70.53;99392.96;213754;1278;140686;-68
2022/08/21 17:14:23;;;;;;;15.90;14.10;;;;;;;23.04;71.03;99394.77;213731;1278;141322;-67
2022/08/21 17:19:42;;;;;;;17.30;12.70;;;;;;;23.01;71.11;99394.31;213814;1278;140786;-68
2022/08/21 17:24:51;;;;;;;16.80;14.70;;;;;;;22.99;71.43;99398.92;213338;1278;142438;-68
2022/08/21 17:30:14;;;;;;;13.50;12.20;;;;;;;22.95;71.41;99396.79;213203;1278;142665;-70
2022/08/21 17:35:23;;;;;;;17.30;13.60;;;;;;;22.88;71.72;99393.79;214064;1278;141966;-68
2022/08/21 17:40:29;;;;;;;14.60;12.40;;;;;;;22.83;72.10;99407.03;214385;1278;141599;-67
2022/08/21 17:45:39;;;;;;;19.20;13.20;;;;;;;22.80;72.28;99411.09;213071;1277;142403;-66
2022/08/21 17:50:44;;;;;;;18.00;11.90;;;;;;;22.73;72.28;99416.00;212945;1277;144727;-70
2022/08/21 17:55:49;;;;;;;17.10;12.80;;;;;;;22.68;72.72;99418.38;213047;1277;142588;-68
2022/08/21 18:00:52;;;;;;;15.60;12.80;;;;;;;22.63;72.99;99419.92;213094;1277;142700;-69
2022/08/21 18:05:58;;;;;;;10.60;9.60;;;;;;;22.54;73.16;99431.41;214697;1277;141817;-71
2022/08/21 18:11:03;;;;;;;14.30;11.40;;;;;;;22.48;73.48;99430.61;215621;1277;142468;-70
2022/08/21 18:16:10;;;;;;;12.00;10.70;;;;;;;22.45;73.75;99424.45;215558;1277;140918;-72
2022/08/21 18:21:17;;;;;;;17.40;10.80;;;;;;;22.44;74.11;99428.05;215315;1277;141359;-70
2022/08/21 18:26:27;;;;;;;9.70;8.70;;;;;;;22.41;74.15;99425.27;215239;1277;141174;-69
2022/08/21 18:31:33;;;;;;;10.60;9.60;;;;;;;22.37;74.31;99430.45;215550;1277;141506;-68
2022/08/21 18:36:38;;;;;;;11.00;8.70;;;;;;;22.37;74.49;99433.06;215345;1277;141057;-70
2022/08/21 18:41:43;;;;;;;9.70;8.90;;;;;;;22.29;74.66;99433.19;213755;1277;140918;-69
2022/08/21 18:46:53;;;;;;;10.00;9.10;;;;;;;22.21;74.77;99431.42;213710;1277;141614;-68
2022/08/21 18:52:03;;;;;;;15.90;9.30;;;;;;;22.10;74.96;99434.50;213320;1277;140316;-72
2022/08/21 18:57:39;;;;;;;13.50;8.40;;;;;;;21.95;75.09;99437.11;213472;1277;141616;-68
2022/08/21 19:02:56;;;;;;;9.10;8.20;;;;;;;21.82;75.28;99435.04;213529;1278;142446;-68
2022/08/21 19:08:16;;;;;;;9.90;8.70;;;;;;;21.76;75.62;99443.29;213138;1278;140963;-68
2022/08/21 19:13:21;;;;;;;9.90;8.30;;;;;;;21.73;75.81;99447.20;213550;1278;140809;-70
2022/08/21 19:18:28;;;;;;;9.50;7.80;;;;;;;21.71;75.99;99448.62;214611;1277;142237;-70
2022/08/21 19:23:33;;;;;;;10.00;9.00;;;;;;;21.70;76.29;99455.06;213621;1277;142591;-70
2022/08/21 19:28:47;;;;;;;13.20;8.70;;;;;;;21.69;76.33;99452.95;213935;1277;142802;-68
2022/08/21 19:34:03;;;;;;;12.30;8.90;;;;;;;21.66;76.40;99458.16;213065;1277;142120;-69
2022/08/21 19:39:09;;;;;;;8.80;7.90;;;;;;;21.60;76.53;99456.66;213648;1277;141622;-68
2022/08/21 19:44:19;;;;;;;9.50;8.40;;;;;;;21.54;76.61;99455.45;212729;1280;152584;-68
2022/08/21 19:49:32;;;;;;;10.80;9.00;;;;;;;21.47;76.60;99454.27;213614;1278;141560;-69
2022/08/21 19:55:14;;;;;;;11.00;8.80;;;;;;;21.37;76.84;99459.00;214187;1278;143317;-67
2022/08/21 20:00:22;;;;;;;8.20;7.40;;;;;;;21.32;76.98;99458.34;214789;1279;141578;-71
2022/08/21 20:05:26;;;;;;;8.60;7.60;;;;;;;21.23;77.02;99456.02;214623;1278;141565;-68
2022/08/21 20:10:44;;;;;;;7.80;6.90;;;;;;;21.19;77.23;99455.95;213885;1278;142448;-68
2022/08/21 20:16:15;;;;;;;8.70;7.30;;;;;;;21.18;77.37;99458.61;212949;1279;141869;-68
2022/08/21 20:21:39;;;;;;;12.80;8.00;;;;;;;21.14;77.45;99458.59;215039;1278;141428;-68
2022/08/21 20:26:47;;;;;;;8.60;7.40;;;;;;;21.10;77.46;99454.59;213997;1281;141625;-68
2022/08/21 20:31:52;;;;;;;7.70;6.90;;;;;;;21.06;77.67;99452.98;214770;1278;141136;-69
2022/08/21 20:36:56;;;;;;;7.00;6.50;;;;;;;21.03;77.73;99449.30;214516;1277;141601;-68
2022/08/21 20:42:04;;;;;;;9.20;6.90;;;;;;;20.97;77.82;99451.80;214049;1277;142605;-69
2022/08/21 20:47:09;;;;;;;;;;;;;;;20.92;77.91;99451.77;213209;1277;161426;-68
2022/08/21 20:52:19;;;;;;;6.00;5.50;;;;;;;20.84;78.14;99451.95;214099;1277;129382;-68
2022/08/21 20:57:36;;;;;;;7.30;6.40;;;;;;;20.80;78.34;99449.66;214049;1277;143742;-67
2022/08/21 21:03:01;;;;;;;9.20;6.10;;;;;;;20.79;78.46;99453.27;214134;1278;141465;-69
2022/08/21 21:08:23;;;;;;;6.10;5.50;;;;;;;20.81;78.57;99454.86;213163;1277;140991;-68
2022/08/21 21:13:58;;;;;;;7.70;5.60;;;;;;;20.77;78.55;99452.96;213699;1279;141354;-68
2022/08/21 21:19:12;;;;;;;5.20;4.70;;;;;;;20.72;78.80;99454.48;213817;1277;140861;-67
2022/08/21 21:24:35;;;;;;;13.20;5.20;;;;;;;20.70;78.82;99456.33;213550;1277;142034;-66
2022/08/21 21:29:47;;;;;;;7.20;4.20;;;;;;;20.68;78.96;99456.15;213515;1277;142095;-68
2022/08/21 21:34:50;;;;;;;6.90;4.60;;;;;;;20.69;79.13;99461.93;213713;1277;140773;-68
2022/08/21 21:40:19;;;;;;;4.60;3.60;;;;;;;20.68;79.15;99462.17;212804;1277;141475;-69
2022/08/21 21:45:31;;;;;;;5.00;4.60;;;;;;;20.60;79.07;99460.29;214899;1277;140706;-68
2022/08/21 21:50:55;;;;;;;6.50;4.50;;;;;;;20.55;79.20;99461.02;214276;1277;140557;-69
2022/08/21 21:56:38;;;;;;;6.20;3.90;;;;;;;20.53;79.25;99461.98;214113;1277;140563;-67
2022/08/21 22:02:11;;;;;;;6.00;4.50;;;;;;;20.53;79.45;99465.05;214927;1277;140348;-68
2022/08/21 22:07:24;;;;;;;5.20;4.80;;;;;;;20.53;79.30;99468.20;215537;1277;140618;-68
2022/08/21 22:12:48;;;;;;;8.10;4.40;;;;;;;20.51;79.31;99466.56;215098;1279;141307;-69
2022/08/21 22:18:01;;;;;;;5.20;4.60;;;;;;;20.47;79.26;99472.18;215767;1277;142209;-69
2022/08/21 22:23:11;;;;;;;4.80;3.40;;;;;;;20.46;79.43;99466.63;215186;1279;141562;-68
2022/08/21 22:28:23;;;;;;;4.20;3.70;;;;;;;20.43;79.29;99469.54;216934;1267;142694;-66
2022/08/21 22:33:28;;;;;;;5.60;3.80;;;;;;;20.41;79.39;99469.46;215008;1277;142607;-66
2022/08/21 22:38:35;;;;;;;3.50;2.80;;;;;;;20.38;79.45;99469.04;215976;1276;142331;-67
2022/08/21 22:43:58;;;;;;;5.90;3.30;;;;;;;20.36;79.44;99463.55;215806;1276;141428;-68
2022/08/21 22:49:08;;;;;;;4.10;3.30;;;;;;;20.38;79.70;99462.98;215879;1276;142153;-68
2022/08/21 22:54:34;;;;;;;5.20;3.10;;;;;;;20.37;79.61;99465.91;215566;1275;163907;-68
2022/08/21 22:59:54;;;;;;;4.30;3.90;;;;;;;20.37;79.67;99461.54;213823;1276;141434;-70
2022/08/21 23:05:03;;;;;;;4.10;3.60;;;;;;;20.33;79.62;99455.44;213166;1276;164948;-70
2022/08/21 23:10:34;;;;;;;4.00;3.60;;;;;;;20.28;79.66;99458.12;213555;1276;141712;-69
2022/08/21 23:15:45;;;;;;;4.10;3.80;;;;;;;20.20;79.82;99455.61;213352;1276;141183;-70
2022/08/21 23:21:02;;;;;;;3.30;3.10;;;;;;;20.13;79.91;99458.06;213998;1275;141045;-70
2022/08/21 23:26:18;;;;;;;4.30;4.00;;;;;;;20.08;80.01;99457.41;213843;1276;140286;-70
2022/08/21 23:31:34;;;;;;;5.60;3.90;;;;;;;20.06;80.29;99452.77;213459;1277;141548;-70
2022/08/21 23:43:12;;;;;;;7.90;4.70;;;;;;;19.93;80.54;99447.70;214152;1277;140909;-70
2022/08/21 23:48:16;;;;;;;5.60;4.60;;;;;;;19.92;80.82;99442.80;214703;1278;141391;-69
2022/08/21 23:54:07;;;;;;;7.70;4.70;;;;;;;19.92;80.87;99444.79;214227;1277;140156;-71